Time;durP1;ratioP1;P1;durP2;ratioP2;P2;SDS_P1;SDS_P2;PMS_P1;PMS_P2;Temp;Humidity;BMP_temperature;BMP_pressure;BME280_temperature;BME280_humidity;BME280_pressure;Samples;Min_cycle;Max_cycle;Signal;HPM_P1;HPM_P2
2021/12/16 00:01:47;;;;;;;;;;;20.10;43.30;;;;;;672572;29;670;-82
2021/12/16 00:02:08;;;;;;;;;;;20.10;43.10;;;;;;669985;29;863;-82
2021/12/16 00:02:57;;;;;;;;;;;20.10;43.20;;;;;;670026;29;828;-89
2021/12/16 00:06:51;;;;;;;;;;;20.00;44.40;;;;;;668232;29;1236;-87
2021/12/16 00:07:45;;;;;;;;;;;20.10;44.80;;;;;;667539;29;1090;-87
2021/12/16 00:08:18;;;;;;;;;;;20.10;44.10;;;;;;667787;29;1212;-88
2021/12/16 00:08:52;;;;;;;;;;;20.00;43.80;;;;;;667135;29;1459;-88
2021/12/16 00:09:18;;;;;;;;;;;20.00;44.50;;;;;;667540;29;1236;-90
2021/12/16 00:10:29;;;;;;;;;;;20.00;44.50;;;;;;665014;29;1039;-87
2021/12/16 00:11:01;;;;;;;;;;;20.00;44.20;;;;;;662390;29;888;-90
2021/12/16 00:32:36;;;;;;;;;;;20.00;44.10;;;;;;662421;29;600;-87
2021/12/16 00:33:44;;;;;;;;;;;20.00;44.20;;;;;;657425;30;1235;-88
2021/12/16 00:33:56;;;;;;;;;;;20.00;44.10;;;;;;662396;29;846;-89
2021/12/16 00:34:05;;;;;;;;;;;20.00;44.60;;;;;;659757;30;1365;-88
2021/12/16 00:34:46;;;;;;;;;;;20.10;44.90;;;;;;659822;30;1296;-88
2021/12/16 00:35:07;;;;;;;;;;;20.00;44.50;;;;;;659523;29;1440;-86
2021/12/16 00:35:27;;;;;;;;;;;20.10;44.70;;;;;;659783;30;1189;-85
2021/12/16 00:35:50;;;;;;;;;;;20.10;44.20;;;;;;660120;29;1264;-88
2021/12/16 00:36:12;;;;;;;;;;;20.10;44.10;;;;;;665214;29;1193;-87
2021/12/16 00:36:40;;;;;;;;;;;20.10;44.20;;;;;;663103;29;1283;-87
2021/12/16 00:37:01;;;;;;;;;;;20.10;44.10;;;;;;661593;29;1263;-86
2021/12/16 00:37:22;;;;;;;;;;;20.00;45.60;;;;;;661806;29;1142;-86
2021/12/16 00:37:42;;;;;;;;;;;20.10;44.10;;;;;;659831;30;1376;-87
2021/12/16 00:38:04;;;;;;;;;;;20.10;44.10;;;;;;659398;29;1190;-87
2021/12/16 00:38:24;;;;;;;;;;;20.10;44.10;;;;;;660634;30;1085;-87
2021/12/16 00:38:45;;;;;;;;;;;20.10;44.10;;;;;;661094;29;781;-87
2021/12/16 00:39:10;;;;;;;;;;;20.10;44.20;;;;;;663235;29;1393;-88
2021/12/16 00:39:33;;;;;;;;;;;20.10;44.00;;;;;;662276;29;1340;-87
2021/12/16 00:39:54;;;;;;;;;;;20.10;44.00;;;;;;664349;29;1373;-88
2021/12/16 00:40:15;;;;;;;;;;;20.10;44.00;;;;;;662128;29;1146;-91
2021/12/16 00:40:40;;;;;;;;;;;20.10;44.10;;;;;;662926;29;1572;-85
2021/12/16 00:41:01;;;;;;;;;;;20.10;43.90;;;;;;663242;29;883;-84
2021/12/16 00:41:21;;;;;;;;;;;20.10;43.90;;;;;;663092;29;1112;-86
2021/12/16 00:41:45;;;;;;;;;;;20.10;43.80;;;;;;662202;29;1273;-86
2021/12/16 00:42:11;;;;;;;;;;;20.10;44.00;;;;;;664434;29;1098;-86
2021/12/16 00:42:48;;;;;;;;;;;20.10;43.80;;;;;;668475;29;1330;-86
2021/12/16 00:43:38;;;;;;;;;;;20.10;43.70;;;;;;669982;29;887;-86
2021/12/16 00:44:03;;;;;;;;;;;20.10;43.80;;;;;;667204;29;1128;-86
2021/12/16 00:45:30;;;;;;;;;;;20.10;43.70;;;;;;666839;29;1376;-86
2021/12/16 00:45:32;;;;;;;;;;;20.20;44.00;;;;;;664059;29;1187;-86
2021/12/16 00:47:35;;;;;;;;;;;20.10;43.60;;;;;;663227;29;623;-86
2021/12/16 00:48:00;;;;;;;;;;;20.10;43.50;;;;;;665742;29;793;-86
2021/12/16 00:48:24;;;;;;;;;;;20.10;43.60;;;;;;665664;29;797;-86
2021/12/16 00:49:52;;;;;;;;;;;18.40;42.80;;;;;;665741;29;1337;-84
2021/12/16 00:54:06;;;;;;;;;;;20.10;45.00;;;;;;663398;29;1217;-86
2021/12/16 00:54:10;;;;;;;;;;;20.10;43.40;;;;;;665883;29;603;-85
2021/12/16 00:54:30;;;;;;;;;;;20.10;43.40;;;;;;665805;29;816;-85
2021/12/16 00:55:01;;;;;;;;;;;20.10;43.70;;;;;;665763;29;1964;-87
2021/12/16 00:55:48;;;;;;;;;;;20.40;43.50;;;;;;662944;29;1576;-86
2021/12/16 00:56:03;;;;;;;;;;;20.10;43.20;;;;;;662898;29;1136;-86
2021/12/16 00:56:24;;;;;;;;;;;20.10;43.30;;;;;;663172;29;1267;-87
2021/12/16 00:56:52;;;;;;;;;;;20.10;43.40;;;;;;663306;29;1269;-87
2021/12/16 00:57:15;;;;;;;;;;;20.10;43.30;;;;;;664555;29;1186;-86
2021/12/16 00:57:37;;;;;;;;;;;20.10;43.30;;;;;;665865;29;1386;-86
2021/12/16 00:57:57;;;;;;;;;;;20.10;43.50;;;;;;665690;29;1321;-87
2021/12/16 00:58:21;;;;;;;;;;;20.10;43.60;;;;;;663905;29;1325;-86
2021/12/16 00:58:49;;;;;;;;;;;20.10;43.30;;;;;;660723;30;1269;-87
2021/12/16 00:59:12;;;;;;;;;;;20.10;43.40;;;;;;660672;30;1136;-87
2021/12/16 00:59:37;;;;;;;;;;;20.10;43.60;;;;;;660862;29;1337;-86
2021/12/16 01:00:00;;;;;;;;;;;20.10;43.60;;;;;;670601;29;1259;-87
2021/12/16 01:00:24;;;;;;;;;;;20.10;43.30;;;;;;673558;29;827;-87
2021/12/16 01:00:53;;;;;;;;;;;20.10;43.20;;;;;;676091;29;1223;-88
2021/12/16 01:01:29;;;;;;;;;;;20.10;43.20;;;;;;673296;29;1282;-87
2021/12/16 01:02:05;;;;;;;;;;;20.10;43.20;;;;;;673410;29;1404;-87
2021/12/16 01:05:12;;;;;;;;;;;20.10;43.10;;;;;;668308;29;674;-87
2021/12/16 01:08:15;;;;;;;;;;;20.00;42.70;;;;;;668310;29;765;-87
2021/12/16 01:33:33;;;;;;;;;;;20.00;42.50;;;;;;668385;29;594;-86
2021/12/16 01:34:37;;;;;;;;;;;19.80;42.70;;;;;;665796;29;828;-84
2021/12/16 01:35:11;;;;;;;;;;;19.80;42.70;;;;;;664802;29;1195;-85
2021/12/16 01:35:46;;;;;;;;;;;19.90;42.80;;;;;;663224;29;1006;-86
2021/12/16 01:36:29;;;;;;;;;;;19.80;42.90;;;;;;660958;29;1427;-85
2021/12/16 01:49:48;;;;;;;;;;;20.60;43.40;;;;;;672898;29;657;-86
2021/12/16 01:50:18;;;;;;;;;;;19.80;43.10;;;;;;672941;29;832;-87
2021/12/16 01:50:46;;;;;;;;;;;19.70;43.10;;;;;;670451;29;1272;-87
2021/12/16 01:51:22;;;;;;;;;;;19.70;42.90;;;;;;670353;29;1226;-87
2021/12/16 01:53:33;;;;;;;;;;;19.30;42.70;;;;;;670419;29;705;-87
2021/12/16 01:54:30;;;;;;;;;;;19.70;43.10;;;;;;670293;29;1303;-88
2021/12/16 01:55:42;;;;;;;;;;;19.70;42.90;;;;;;670530;29;733;-87
2021/12/16 01:56:20;;;;;;;;;;;19.70;43.00;;;;;;672896;29;824;-87
2021/12/16 01:56:49;;;;;;;;;;;19.70;42.90;;;;;;672924;29;1122;-87
2021/12/16 01:57:26;;;;;;;;;;;19.70;43.10;;;;;;672983;29;1249;-86
2021/12/16 01:57:52;;;;;;;;;;;19.70;42.80;;;;;;672947;29;831;-86
2021/12/16 01:58:20;;;;;;;;;;;19.70;42.80;;;;;;672861;29;1056;-86
2021/12/16 01:58:40;;;;;;;;;;;19.70;42.80;;;;;;670514;29;804;-86
2021/12/16 01:59:04;;;;;;;;;;;19.70;42.80;;;;;;667679;29;1203;-86
2021/12/16 01:59:33;;;;;;;;;;;19.70;43.00;;;;;;670434;29;1271;-86
2021/12/16 02:00:05;;;;;;;;;;;19.70;43.00;;;;;;675416;29;1201;-87
2021/12/16 02:00:51;;;;;;;;;;;19.70;42.80;;;;;;673312;29;1109;-86
2021/12/16 02:01:18;;;;;;;;;;;19.70;42.80;;;;;;677173;29;1243;-87
2021/12/16 02:01:40;;;;;;;;;;;19.70;42.80;;;;;;675528;29;895;-87
2021/12/16 02:02:12;;;;;;;;;;;19.70;42.90;;;;;;675448;29;1216;-88
2021/12/16 02:03:01;;;;;;;;;;;19.70;42.80;;;;;;675399;29;1401;-88
2021/12/16 02:03:27;;;;;;;;;;;19.70;42.90;;;;;;675422;29;1217;-87
2021/12/16 02:03:52;;;;;;;;;;;19.70;42.80;;;;;;675486;29;835;-87
2021/12/16 02:04:25;;;;;;;;;;;19.70;42.80;;;;;;672930;29;1291;-87
2021/12/16 02:05:58;;;;;;;;;;;19.70;42.80;;;;;;672928;29;602;-87
2021/12/16 02:07:05;;;;;;;;;;;19.70;42.80;;;;;;674651;29;871;-87
2021/12/16 02:07:47;;;;;;;;;;;19.70;43.90;;;;;;675475;29;1221;-87
2021/12/16 02:08:34;;;;;;;;;;;19.70;42.90;;;;;;678144;29;547;-87
2021/12/16 02:08:55;;;;;;;;;;;19.70;42.80;;;;;;677902;29;839;-87
2021/12/16 02:09:29;;;;;;;;;;;19.70;42.70;;;;;;677870;29;1156;-87
2021/12/16 02:09:49;;;;;;;;;;;19.70;42.60;;;;;;678023;29;1111;-88
2021/12/16 02:10:15;;;;;;;;;;;19.70;43.10;;;;;;678035;29;1246;-86
2021/12/16 02:10:41;;;;;;;;;;;19.70;42.60;;;;;;677982;29;1239;-87
2021/12/16 02:12:43;;;;;;;;;;;19.70;42.70;;;;;;678185;29;922;-86
2021/12/16 02:13:36;;;;;;;;;;;19.70;42.80;;;;;;678476;29;649;-86
2021/12/16 02:27:49;;;;;;;;;;;19.60;42.50;;;;;;678574;29;615;-88
2021/12/16 02:28:21;;;;;;;;;;;19.60;42.60;;;;;;680760;29;852;-88
2021/12/16 02:31:32;;;;;;;;;;;19.60;42.50;;;;;;678128;29;1093;-88
2021/12/16 02:32:01;;;;;;;;;;;19.60;42.70;;;;;;675358;29;1284;-88
2021/12/16 02:33:10;;;;;;;;;;;19.60;42.60;;;;;;675799;29;587;-87
2021/12/16 02:35:58;;;;;;;;;;;19.60;42.60;;;;;;678265;29;618;-88
2021/12/16 02:36:44;;;;;;;;;;;19.60;42.50;;;;;;675750;29;879;-86
2021/12/16 02:37:10;;;;;;;;;;;19.60;42.60;;;;;;675548;29;1219;-87
2021/12/16 02:37:33;;;;;;;;;;;19.60;42.80;;;;;;675468;29;1087;-87
2021/12/16 02:37:54;;;;;;;;;;;19.60;42.60;;;;;;675642;29;1246;-87
2021/12/16 02:38:16;;;;;;;;;;;19.60;43.10;;;;;;677751;29;1139;-88
2021/12/16 02:38:37;;;;;;;;;;;19.00;42.50;;;;;;675553;29;788;-86
2021/12/16 02:39:06;;;;;;;;;;;19.60;43.00;;;;;;676179;29;1110;-87
2021/12/16 02:39:29;;;;;;;;;;;19.60;42.50;;;;;;673622;29;1498;-86
2021/12/16 02:39:50;;;;;;;;;;;19.60;43.00;;;;;;673501;29;1224;-88
2021/12/16 02:40:11;;;;;;;;;;;19.60;43.10;;;;;;675781;29;1120;-86
2021/12/16 02:40:33;;;;;;;;;;;19.60;42.50;;;;;;675313;29;1340;-87
2021/12/16 02:40:54;;;;;;;;;;;19.60;42.50;;;;;;675357;29;916;-87
2021/12/16 02:41:15;;;;;;;;;;;19.60;42.60;;;;;;675536;29;1196;-87
2021/12/16 02:41:39;;;;;;;;;;;19.60;42.70;;;;;;675563;29;1112;-86
2021/12/16 02:42:12;;;;;;;;;;;19.60;42.50;;;;;;674348;29;1271;-87
2021/12/16 02:42:40;;;;;;;;;;;19.60;42.50;;;;;;675326;29;776;-88
2021/12/16 02:43:23;;;;;;;;;;;19.60;42.80;;;;;;677241;29;1308;-87
2021/12/16 02:48:45;;;;;;;;;;;19.60;42.50;;;;;;678003;29;619;-87
2021/12/16 02:49:06;;;;;;;;;;;19.50;42.50;;;;;;675234;29;1342;-87
2021/12/16 02:49:27;;;;;;;;;;;19.50;42.40;;;;;;675194;29;1736;-87
2021/12/16 02:49:48;;;;;;;;;;;19.60;42.40;;;;;;675169;29;1412;-87
2021/12/16 02:50:09;;;;;;;;;;;19.60;42.40;;;;;;675218;29;1274;-87
2021/12/16 02:50:29;;;;;;;;;;;19.50;42.30;;;;;;675059;29;1517;-87
2021/12/16 02:50:50;;;;;;;;;;;19.60;42.50;;;;;;677596;29;1348;-87
2021/12/16 02:51:12;;;;;;;;;;;19.50;42.40;;;;;;675314;29;1226;-87
2021/12/16 02:51:33;;;;;;;;;;;19.60;42.40;;;;;;674723;29;1271;-88
2021/12/16 02:51:53;;;;;;;;;;;19.60;42.70;;;;;;674710;29;1423;-88
2021/12/16 02:52:16;;;;;;;;;;;19.50;42.50;;;;;;675291;29;1321;-87
2021/12/16 02:52:37;;;;;;;;;;;19.60;42.50;;;;;;676124;29;863;-87
2021/12/16 02:52:57;;;;;;;;;;;19.60;42.80;;;;;;678409;29;1231;-87
2021/12/16 02:53:18;;;;;;;;;;;19.50;42.40;;;;;;680006;29;1482;-87
2021/12/16 02:53:40;;;;;;;;;;;19.50;42.40;;;;;;677940;29;797;-87
2021/12/16 02:54:02;;;;;;;;;;;19.60;42.40;;;;;;677815;29;1210;-87
2021/12/16 02:54:23;;;;;;;;;;;19.50;42.40;;;;;;677787;29;1460;-88
2021/12/16 02:54:44;;;;;;;;;;;19.60;42.40;;;;;;676973;29;1899;-88
2021/12/16 02:55:06;;;;;;;;;;;19.50;42.40;;;;;;676030;29;1358;-88
2021/12/16 02:55:27;;;;;;;;;;;19.50;42.30;;;;;;677725;29;1117;-87
2021/12/16 02:55:47;;;;;;;;;;;19.50;42.30;;;;;;677917;29;772;-88
2021/12/16 02:56:08;;;;;;;;;;;19.50;42.30;;;;;;674676;29;1465;-87
2021/12/16 02:56:29;;;;;;;;;;;19.60;42.60;;;;;;675157;29;1338;-88
2021/12/16 02:56:50;;;;;;;;;;;19.60;42.40;;;;;;675650;29;1418;-87
2021/12/16 02:57:10;;;;;;;;;;;19.50;42.30;;;;;;677491;29;1102;-88
2021/12/16 02:57:37;;;;;;;;;;;19.60;42.40;;;;;;675199;29;1207;-87
2021/12/16 02:58:00;;;;;;;;;;;19.50;42.40;;;;;;675248;29;863;-87
2021/12/16 02:58:22;;;;;;;;;;;19.50;42.60;;;;;;673792;29;1095;-87
2021/12/16 02:58:45;;;;;;;;;;;19.50;42.50;;;;;;676731;29;1236;-87
2021/12/16 02:59:06;;;;;;;;;;;19.60;42.50;;;;;;675460;29;1484;-87
2021/12/16 02:59:29;;;;;;;;;;;19.50;42.30;;;;;;673015;29;1398;-87
2021/12/16 02:59:51;;;;;;;;;;;19.50;42.60;;;;;;674867;29;1167;-86
2021/12/16 03:00:14;;;;;;;;;;;19.50;42.30;;;;;;677381;29;1372;-86
2021/12/16 03:00:41;;;;;;;;;;;19.50;42.40;;;;;;677889;29;860;-86
2021/12/16 03:01:29;;;;;;;;;;;19.60;42.40;;;;;;677695;29;1303;-86
2021/12/16 03:01:51;;;;;;;;;;;19.60;42.30;;;;;;671730;29;1452;-86
2021/12/16 03:02:16;;;;;;;;;;;19.60;42.50;;;;;;672853;29;1140;-87
2021/12/16 03:02:37;;;;;;;;;;;19.50;42.30;;;;;;675426;29;860;-85
2021/12/16 03:02:58;;;;;;;;;;;19.50;42.20;;;;;;677716;29;1238;-86
2021/12/16 03:03:19;;;;;;;;;;;19.50;42.30;;;;;;677702;29;1198;-88
2021/12/16 03:03:40;;;;;;;;;;;19.50;42.40;;;;;;677909;29;800;-86
2021/12/16 03:04:02;;;;;;;;;;;19.50;42.30;;;;;;676757;29;1145;-86
2021/12/16 03:04:25;;;;;;;;;;;19.50;42.40;;;;;;677872;29;1122;-86
2021/12/16 03:04:48;;;;;;;;;;;19.50;42.40;;;;;;676887;29;1213;-85
2021/12/16 03:05:10;;;;;;;;;;;19.50;42.30;;;;;;677875;29;1386;-86
2021/12/16 03:05:31;;;;;;;;;;;19.50;43.20;;;;;;677723;29;788;-87
2021/12/16 03:05:52;;;;;;;;;;;19.50;42.40;;;;;;677726;29;1096;-86
2021/12/16 03:06:13;;;;;;;;;;;19.50;42.60;;;;;;677869;29;1108;-86
2021/12/16 03:06:34;;;;;;;;;;;19.50;42.60;;;;;;677739;29;1231;-86
2021/12/16 03:06:57;;;;;;;;;;;19.50;42.40;;;;;;677147;29;1287;-86
2021/12/16 03:07:19;;;;;;;;;;;19.50;42.40;;;;;;677794;29;879;-86
2021/12/16 03:07:39;;;;;;;;;;;19.50;42.30;;;;;;677113;29;856;-87
2021/12/16 03:08:00;;;;;;;;;;;19.50;42.50;;;;;;677791;29;832;-86
2021/12/16 03:08:20;;;;;;;;;;;19.40;42.40;;;;;;677657;29;1501;-88
2021/12/16 03:08:41;;;;;;;;;;;19.50;42.40;;;;;;677275;29;1128;-87
2021/12/16 03:09:03;;;;;;;;;;;19.50;42.60;;;;;;677408;29;855;-87
2021/12/16 03:11:23;;;;;;;;;;;19.50;42.30;;;;;;669995;29;816;-87
2021/12/16 03:13:07;;;;;;;;;;;20.00;42.60;;;;;;665190;29;675;-87
2021/12/16 03:13:38;;;;;;;;;;;19.50;42.30;;;;;;667723;29;1231;-86
2021/12/16 03:14:58;;;;;;;;;;;19.50;42.40;;;;;;669969;29;1049;-87
2021/12/16 03:15:47;;;;;;;;;;;19.50;42.40;;;;;;669571;29;1122;-87
2021/12/16 03:16:12;;;;;;;;;;;19.50;42.30;;;;;;667448;29;1419;-87
2021/12/16 03:16:48;;;;;;;;;;;19.50;42.60;;;;;;665007;29;1695;-87
2021/12/16 03:17:46;;;;;;;;;;;20.10;42.80;;;;;;667695;29;568;-87
2021/12/16 03:19:45;;;;;;;;;;;19.50;42.30;;;;;;669072;29;829;-86
2021/12/16 03:20:57;;;;;;;;;;;19.50;42.40;;;;;;665038;29;1004;-85
2021/12/16 03:21:30;;;;;;;;;;;19.50;42.40;;;;;;664923;29;1152;-86
2021/12/16 03:21:55;;;;;;;;;;;19.50;42.40;;;;;;664866;29;1365;-86
2021/12/16 03:22:43;;;;;;;;;;;19.50;42.30;;;;;;667451;29;1213;-86
2021/12/16 03:24:12;;;;;;;;;;;19.50;42.40;;;;;;667857;29;824;-86
2021/12/16 03:25:01;;;;;;;;;;;19.50;42.50;;;;;;667400;29;932;-87
2021/12/16 03:25:29;;;;;;;;;;;19.50;42.50;;;;;;667393;29;1120;-85
2021/12/16 03:28:15;;;;;;;;;;;19.50;42.60;;;;;;667501;29;1125;-85
2021/12/16 03:29:43;;;;;;;;;;;19.50;42.60;;;;;;667667;29;591;-86
2021/12/16 03:30:55;;;;;;;;;;;18.50;42.00;;;;;;667530;29;1142;-86
2021/12/16 03:31:40;;;;;;;;;;;19.50;42.60;;;;;;667463;29;1169;-85
2021/12/16 03:33:51;;;;;;;;;;;19.60;42.60;;;;;;664966;29;923;-86
2021/12/16 03:35:13;;;;;;;;;;;19.60;42.60;;;;;;667372;29;1903;-85
2021/12/16 03:35:53;;;;;;;;;;;19.60;42.60;;;;;;667400;29;1212;-86
2021/12/16 03:36:36;;;;;;;;;;;19.60;42.80;;;;;;667456;29;1105;-86
2021/12/16 03:37:14;;;;;;;;;;;19.60;42.60;;;;;;667515;29;737;-86
2021/12/16 03:37:35;;;;;;;;;;;19.60;42.50;;;;;;667491;29;828;-86
2021/12/16 03:37:59;;;;;;;;;;;19.60;42.50;;;;;;667457;29;1178;-85
2021/12/16 03:38:20;;;;;;;;;;;19.60;42.80;;;;;;664896;29;923;-85
2021/12/16 03:38:42;;;;;;;;;;;19.60;42.50;;;;;;664974;29;892;-85
2021/12/16 03:39:07;;;;;;;;;;;19.60;42.60;;;;;;667469;29;855;-86
2021/12/16 03:39:31;;;;;;;;;;;19.60;42.50;;;;;;665813;29;1212;-85
2021/12/16 03:39:54;;;;;;;;;;;19.60;42.50;;;;;;662318;29;1205;-85
2021/12/16 03:40:14;;;;;;;;;;;19.60;42.40;;;;;;662377;29;1399;-85
2021/12/16 03:40:37;;;;;;;;;;;19.60;42.40;;;;;;660000;29;1247;-85
2021/12/16 03:40:59;;;;;;;;;;;19.60;42.50;;;;;;658175;29;979;-86
2021/12/16 03:41:20;;;;;;;;;;;19.60;42.50;;;;;;657641;30;897;-85
2021/12/16 03:41:40;;;;;;;;;;;19.60;42.40;;;;;;658411;30;1512;-85
2021/12/16 03:42:01;;;;;;;;;;;19.60;42.50;;;;;;660560;29;1016;-85
2021/12/16 03:42:30;;;;;;;;;;;19.60;42.60;;;;;;663152;29;939;-85
2021/12/16 03:42:56;;;;;;;;;;;19.60;42.30;;;;;;664837;29;1501;-86
2021/12/16 03:43:18;;;;;;;;;;;19.60;42.40;;;;;;664866;29;1348;-85
2021/12/16 03:43:39;;;;;;;;;;;19.60;42.40;;;;;;665043;29;805;-85
2021/12/16 03:44:00;;;;;;;;;;;19.70;42.80;;;;;;664838;29;821;-85
2021/12/16 03:44:27;;;;;;;;;;;19.70;42.30;;;;;;662369;29;1127;-85
2021/12/16 03:45:00;;;;;;;;;;;19.70;42.40;;;;;;662355;29;785;-86
2021/12/16 03:46:26;;;;;;;;;;;19.70;42.30;;;;;;665072;29;1209;-84
2021/12/16 03:46:48;;;;;;;;;;;19.70;42.30;;;;;;664829;29;1303;-85
2021/12/16 03:47:09;;;;;;;;;;;19.70;42.30;;;;;;667246;29;1015;-84
2021/12/16 03:47:35;;;;;;;;;;;19.70;42.40;;;;;;664883;29;1140;-85
2021/12/16 03:47:56;;;;;;;;;;;19.70;42.30;;;;;;664827;29;1364;-84
2021/12/16 03:48:19;;;;;;;;;;;19.70;42.30;;;;;;664923;29;988;-85
2021/12/16 03:48:46;;;;;;;;;;;19.70;42.30;;;;;;665104;29;915;-84
2021/12/16 03:49:14;;;;;;;;;;;19.70;42.40;;;;;;667071;29;825;-85
2021/12/16 03:49:35;;;;;;;;;;;19.70;42.30;;;;;;667506;29;1126;-85
2021/12/16 03:49:55;;;;;;;;;;;19.70;42.20;;;;;;664841;29;1357;-84
2021/12/16 03:50:19;;;;;;;;;;;19.80;42.50;;;;;;664677;29;1464;-84
2021/12/16 03:50:40;;;;;;;;;;;19.70;43.30;;;;;;664925;29;1154;-84
2021/12/16 03:51:02;;;;;;;;;;;19.70;42.30;;;;;;664915;29;919;-85
2021/12/16 03:51:26;;;;;;;;;;;19.70;42.50;;;;;;665685;29;1187;-84
2021/12/16 03:51:50;;;;;;;;;;;19.70;42.30;;;;;;668682;29;835;-85
2021/12/16 03:52:11;;;;;;;;;;;19.70;42.30;;;;;;670040;29;803;-84
2021/12/16 03:52:32;;;;;;;;;;;19.80;42.30;;;;;;671430;29;1101;-85
2021/12/16 03:52:52;;;;;;;;;;;19.70;42.40;;;;;;670144;29;1144;-86
2021/12/16 03:53:16;;;;;;;;;;;19.70;42.20;;;;;;670159;29;1159;-85
2021/12/16 03:53:37;;;;;;;;;;;19.70;42.20;;;;;;670084;29;883;-84
2021/12/16 03:54:00;;;;;;;;;;;19.70;42.30;;;;;;669910;29;892;-84
2021/12/16 03:54:23;;;;;;;;;;;19.70;42.30;;;;;;669931;29;1294;-86
2021/12/16 03:54:49;;;;;;;;;;;19.70;42.50;;;;;;668539;29;1975;-85
2021/12/16 03:55:10;;;;;;;;;;;19.80;42.40;;;;;;668018;29;1091;-85
2021/12/16 03:55:31;;;;;;;;;;;19.70;42.60;;;;;;669901;29;1208;-84
2021/12/16 03:55:52;;;;;;;;;;;19.80;42.50;;;;;;668458;29;1072;-84
2021/12/16 03:56:13;;;;;;;;;;;19.80;42.30;;;;;;668797;29;1105;-85
2021/12/16 03:56:33;;;;;;;;;;;19.80;42.30;;;;;;669891;29;1148;-85
2021/12/16 03:56:55;;;;;;;;;;;19.80;43.40;;;;;;666922;29;1498;-85
2021/12/16 03:57:17;;;;;;;;;;;19.70;42.20;;;;;;664366;29;1237;-85
2021/12/16 03:57:38;;;;;;;;;;;19.70;42.20;;;;;;664930;29;897;-85
2021/12/16 03:57:58;;;;;;;;;;;19.80;42.30;;;;;;665398;29;1272;-85
2021/12/16 03:58:19;;;;;;;;;;;19.80;42.50;;;;;;667815;29;1095;-84
2021/12/16 03:58:40;;;;;;;;;;;19.80;42.20;;;;;;669960;29;1149;-84
2021/12/16 03:59:00;;;;;;;;;;;19.80;42.40;;;;;;667300;29;1781;-85
2021/12/16 03:59:24;;;;;;;;;;;19.80;42.30;;;;;;666939;29;1330;-84
2021/12/16 03:59:45;;;;;;;;;;;19.80;42.30;;;;;;667340;29;1249;-85
2021/12/16 04:00:07;;;;;;;;;;;19.70;42.20;;;;;;668101;29;809;-85
2021/12/16 04:00:31;;;;;;;;;;;19.70;42.20;;;;;;671453;29;1245;-85
2021/12/16 04:00:54;;;;;;;;;;;19.70;42.10;;;;;;667408;29;836;-85
2021/12/16 04:01:17;;;;;;;;;;;19.70;42.00;;;;;;666564;29;1144;-85
2021/12/16 04:01:37;;;;;;;;;;;19.70;42.10;;;;;;664884;29;1096;-84
2021/12/16 04:02:03;;;;;;;;;;;19.70;42.00;;;;;;664578;29;1306;-84
2021/12/16 04:02:26;;;;;;;;;;;19.70;42.00;;;;;;666543;29;821;-85
2021/12/16 04:02:46;;;;;;;;;;;19.70;41.90;;;;;;669017;29;1080;-84
2021/12/16 04:03:07;;;;;;;;;;;19.70;42.10;;;;;;673994;29;1358;-85
2021/12/16 04:03:28;;;;;;;;;;;19.70;42.00;;;;;;675078;29;1392;-85
2021/12/16 04:03:50;;;;;;;;;;;19.70;42.00;;;;;;674993;29;1457;-86
2021/12/16 04:04:10;;;;;;;;;;;19.70;43.20;;;;;;674413;29;1153;-85
2021/12/16 04:04:31;;;;;;;;;;;19.60;42.00;;;;;;669871;29;1294;-85
2021/12/16 04:04:52;;;;;;;;;;;19.60;42.00;;;;;;669085;29;1746;-85
2021/12/16 04:05:13;;;;;;;;;;;18.70;41.50;;;;;;669531;29;864;-85
2021/12/16 04:05:34;;;;;;;;;;;19.60;42.10;;;;;;670324;29;1280;-85
2021/12/16 04:05:54;;;;;;;;;;;19.60;42.10;;;;;;672423;29;1258;-85
2021/12/16 04:06:15;;;;;;;;;;;19.60;43.30;;;;;;669890;29;1157;-85
2021/12/16 04:06:37;;;;;;;;;;;19.60;42.50;;;;;;669497;29;1260;-85
2021/12/16 04:06:58;;;;;;;;;;;19.60;42.20;;;;;;667894;29;1294;-85
2021/12/16 04:07:21;;;;;;;;;;;19.60;42.00;;;;;;669434;29;805;-85
2021/12/16 04:07:43;;;;;;;;;;;19.60;42.10;;;;;;667444;29;1530;-85
2021/12/16 04:08:04;;;;;;;;;;;19.60;42.20;;;;;;667399;29;1139;-85
2021/12/16 04:08:25;;;;;;;;;;;19.60;42.20;;;;;;667266;29;869;-86
2021/12/16 04:08:46;;;;;;;;;;;19.60;42.10;;;;;;667388;29;1276;-85
2021/12/16 04:09:09;;;;;;;;;;;19.60;42.10;;;;;;668035;29;1329;-85
2021/12/16 04:09:32;;;;;;;;;;;19.60;42.10;;;;;;668931;29;1296;-85
2021/12/16 04:09:53;;;;;;;;;;;19.60;42.30;;;;;;667330;29;789;-86
2021/12/16 04:10:35;;;;;;;;;;;19.60;42.20;;;;;;668927;29;1452;-85
2021/12/16 04:11:05;;;;;;;;;;;19.60;42.20;;;;;;669828;29;786;-85
2021/12/16 04:11:32;;;;;;;;;;;19.60;42.20;;;;;;671722;29;812;-85
2021/12/16 04:12:03;;;;;;;;;;;19.60;42.30;;;;;;672172;29;1866;-84
2021/12/16 04:12:26;;;;;;;;;;;19.60;42.30;;;;;;669194;29;876;-85
2021/12/16 04:12:48;;;;;;;;;;;19.60;42.50;;;;;;672337;29;1207;-85
2021/12/16 04:13:12;;;;;;;;;;;19.50;42.20;;;;;;669917;29;844;-85
2021/12/16 04:13:40;;;;;;;;;;;19.60;42.10;;;;;;670049;29;1215;-85
2021/12/16 04:14:03;;;;;;;;;;;19.50;42.20;;;;;;669992;29;871;-86
2021/12/16 04:14:23;;;;;;;;;;;19.50;43.40;;;;;;670017;29;880;-85
2021/12/16 04:14:44;;;;;;;;;;;19.50;42.30;;;;;;669716;29;1980;-84
2021/12/16 04:15:06;;;;;;;;;;;19.50;42.30;;;;;;669952;29;1109;-85
2021/12/16 04:15:26;;;;;;;;;;;19.50;42.30;;;;;;668340;29;1148;-84
2021/12/16 04:15:47;;;;;;;;;;;19.50;42.30;;;;;;667374;29;844;-85
2021/12/16 04:16:08;;;;;;;;;;;19.50;42.30;;;;;;664503;29;1173;-85
2021/12/16 04:16:31;;;;;;;;;;;19.50;42.30;;;;;;664824;29;1268;-85
2021/12/16 04:16:54;;;;;;;;;;;19.50;42.40;;;;;;667368;29;1283;-84
2021/12/16 04:17:15;;;;;;;;;;;19.50;42.50;;;;;;664680;29;1184;-85
2021/12/16 04:17:35;;;;;;;;;;;19.50;42.50;;;;;;664932;29;1233;-86
2021/12/16 04:17:56;;;;;;;;;;;19.50;42.40;;;;;;668033;29;1345;-86
2021/12/16 04:18:17;;;;;;;;;;;19.50;42.40;;;;;;667285;29;1091;-86
2021/12/16 04:18:38;;;;;;;;;;;19.50;42.40;;;;;;666859;29;904;-84
2021/12/16 04:18:59;;;;;;;;;;;19.50;42.50;;;;;;665139;29;1471;-85
2021/12/16 04:19:24;;;;;;;;;;;19.50;42.40;;;;;;664882;29;1126;-85
2021/12/16 04:19:45;;;;;;;;;;;19.50;42.30;;;;;;665828;29;1622;-86
2021/12/16 04:20:09;;;;;;;;;;;19.50;42.80;;;;;;667444;29;817;-85
2021/12/16 04:20:30;;;;;;;;;;;19.50;42.50;;;;;;671171;29;1249;-85
2021/12/16 04:20:51;;;;;;;;;;;19.50;42.50;;;;;;669948;29;864;-85
2021/12/16 04:21:11;;;;;;;;;;;19.50;42.40;;;;;;669865;29;1519;-85
2021/12/16 04:21:32;;;;;;;;;;;19.50;42.40;;;;;;667314;29;1243;-86
2021/12/16 04:21:57;;;;;;;;;;;19.50;42.40;;;;;;668071;29;1113;-85
2021/12/16 04:22:28;;;;;;;;;;;19.50;42.40;;;;;;671489;29;1224;-86
2021/12/16 04:22:49;;;;;;;;;;;19.50;42.40;;;;;;672033;29;1109;-85
2021/12/16 04:23:11;;;;;;;;;;;19.50;42.60;;;;;;670027;29;1226;-85
2021/12/16 04:23:32;;;;;;;;;;;18.60;41.80;;;;;;670361;29;1125;-85
2021/12/16 04:23:54;;;;;;;;;;;19.50;42.40;;;;;;672862;29;1407;-85
2021/12/16 04:24:14;;;;;;;;;;;19.50;42.60;;;;;;670703;29;1312;-86
2021/12/16 04:24:35;;;;;;;;;;;19.50;42.40;;;;;;670836;29;836;-86
2021/12/16 04:24:57;;;;;;;;;;;19.50;42.50;;;;;;675905;29;1312;-86
2021/12/16 04:25:26;;;;;;;;;;;19.50;42.40;;;;;;676927;29;1232;-86
2021/12/16 04:25:47;;;;;;;;;;;19.50;42.50;;;;;;676979;29;884;-86
2021/12/16 04:26:08;;;;;;;;;;;19.50;42.40;;;;;;676433;29;816;-85
2021/12/16 04:26:29;;;;;;;;;;;19.50;42.40;;;;;;672638;29;801;-84
2021/12/16 04:26:50;;;;;;;;;;;19.50;42.50;;;;;;672656;29;1181;-85
2021/12/16 04:27:11;;;;;;;;;;;19.50;42.50;;;;;;671733;29;1300;-84
2021/12/16 04:27:32;;;;;;;;;;;19.50;42.90;;;;;;672839;29;1256;-85
2021/12/16 04:27:54;;;;;;;;;;;18.20;41.70;;;;;;672492;29;1626;-86
2021/12/16 04:28:18;;;;;;;;;;;19.50;42.50;;;;;;672864;29;1186;-86
2021/12/16 04:28:39;;;;;;;;;;;19.50;42.50;;;;;;671823;29;1523;-85
2021/12/16 04:28:59;;;;;;;;;;;19.50;42.80;;;;;;672762;29;1136;-84
2021/12/16 04:29:22;;;;;;;;;;;19.50;42.70;;;;;;670137;29;1093;-84
2021/12/16 04:29:43;;;;;;;;;;;19.50;42.50;;;;;;670103;29;1398;-84
2021/12/16 04:30:05;;;;;;;;;;;19.50;42.40;;;;;;668343;29;1356;-85
2021/12/16 04:30:27;;;;;;;;;;;19.50;42.50;;;;;;670463;29;1241;-85
2021/12/16 04:30:48;;;;;;;;;;;19.50;42.50;;;;;;670975;29;1525;-86
2021/12/16 04:31:09;;;;;;;;;;;19.50;42.50;;;;;;672720;29;836;-85
2021/12/16 04:31:31;;;;;;;;;;;19.50;42.50;;;;;;672677;29;867;-86
2021/12/16 04:31:53;;;;;;;;;;;19.50;42.60;;;;;;673425;29;1214;-86
2021/12/16 04:32:13;;;;;;;;;;;19.50;42.50;;;;;;674499;29;1229;-86
2021/12/16 04:32:34;;;;;;;;;;;19.50;42.60;;;;;;670668;29;1206;-84
2021/12/16 04:32:54;;;;;;;;;;;19.40;42.30;;;;;;672450;29;1202;-86
2021/12/16 04:33:16;;;;;;;;;;;19.50;42.60;;;;;;672531;29;1224;-84
2021/12/16 04:33:39;;;;;;;;;;;19.50;42.50;;;;;;672612;29;942;-86
2021/12/16 04:34:00;;;;;;;;;;;19.40;42.40;;;;;;672568;29;864;-85
2021/12/16 04:34:21;;;;;;;;;;;19.40;42.40;;;;;;672546;29;1253;-86
2021/12/16 04:34:42;;;;;;;;;;;19.50;42.50;;;;;;670750;29;876;-85
2021/12/16 04:35:04;;;;;;;;;;;19.40;42.60;;;;;;672541;29;1438;-85